Fort Wainwright, AK

2:15 PM AKDT on August 30, 2014 (GMT -0800)
Ladd Army Air Field | Change Station
CLOSE
Current Station
Airport
Location: Fairbanks Ft. Wainwright,
Elevation: 453 ft
Nearby Weather Stations
Active Advisory: Frost Advisory Active Notice: Record Report

Elev 453 ft 64.84 °N, 147.61 °W | Updated 19 minutes ago

Overcast
Overcast
49 °F
Feels Like 49 °F
N
7
Wind Variable Wind from West

Today
High -- | Low -- °F
--% Chance of Precip.
Yesterday
High -- | Low -- °F
Precip. -- in
6:24 AM 9:15 PM
Waxing Crescent, 25% visible
Pressure 29.71 in
Visibility 10.0 miles
Clouds Overcast 5500 ft
Dew Point 29 °F
Humidity 46%
Rainfall 0.00 in
Snow Depth Not available.
UV 1 out of 12
Pollen Not available.
Air Quality Not available.
Flu Activity Not available.
METAR PAFB 302156Z AUTO 27006KT 10SM OVC055 09/M02 A2969 RMK SLP059 T00941017 $ VIA AUTODIAL

More Conditions Fewer Conditions

Pressure 29.71 in
Visibility 10.0 miles
Clouds Overcast 5500 ft
Dew Point 29 °F
Humidity 46%
Rainfall 0.00 in
Snow Depth Not available.
UV 1 out of 12
Pollen Not available.
Air Quality Not available.
Flu Activity Not available.
METAR PAFB 302156Z AUTO 27006KT 10SM OVC055 09/M02 A2969 RMK SLP059 T00941017 $ VIA AUTODIAL

More Conditions Fewer Conditions

10-Day Weather Forecast

Almanac

Astronomy

Aug. 30, 2014 Rise Set
Actual Time 6:24 AM AKDT 9:15 PM AKDT
Civil Twilight 5:28 AM AKDT 10:10 PM AKDT
Nautical Twilight 4:07 AM AKDT 11:30 PM AKDT
Astronomical Twilight 2:23 AM AKDT 1:18 AM AKDT
Moon 1:25 PM AKDT 9:47 PM AKDT
Length of Visible Light 16h 41m
Length of Day
14h 50m
Tomorrow will be 6m 44s shorter.
Waxing Crescent, 25% of the Moon is Illuminated
Today
Waxing Crescent
Sep 2
First Quarter
Sep 8
Full
Sep 15
Last Quarter
Sep 24
New

Today's Extremes

State Highs State Lows

Community

WunderPhotos

Upload Photos

1,748,657 photos uploaded!

WunderBlogs® & News

Nearby

Snow Depth

Station Depth Elevation
Little Chena Ridge 1 in 2000 ft
Munson Ridge 1 in 3100 ft
Eagle Summit 1 in 3650 ft
Upper Chena 1 in 2850 ft
Granite Creek 0 in 1240 ft

Earthquake Activity

City Distance Mag. Time & Date
No recent earthquake activity has been reported nearby.
Minimum magnitude displayed is 2.5.

Coastal Water Temperatures

Place Temperature
No Stations Reporting

Nearby Weather Stations